Strona główna
METAR-TAF:

METAR-TAF

Lotnisko :

Brize Norton, Anglia

Szerokość geograficzna: 51-45N, Długość geograficzna: 001-35W, wysokość: 88 m

Aktualna obserwacja pogody

Raport powstał 44 minut temu, godzina 07:50 UTC
Wiatr 3 kt od północny wschód
Temperatura 9°C
Wilgotność 71%
Ciśnienie 1030 hPa
Widzialność 10 km lub więcej
Brak chmur poniżej 1500 m i brak chmur cumulonimbus

METAR: EGVN 070750Z 05003KT CAVOK 09/04 Q1030 NOSIG RMK BLU BLU

czas: 09:34 (08:34 UTC)

Prognoza

Raport powstał 4 godziny i 7 minut temu, godzina 04:27 UTC
Prognoza ważna od 07 godzina 06 UTC do 08 godzina 06 UTC
Wiatr 3 kt z kierunków zmiennych
Widzialność 10 km lub więcej
Brak chmur poniżej 1500 m i brak chmur cumulonimbus
Prawdopodobieństwo 30%
od 07 godzina 06 UTC do 07 godzina 08 UTC
Widzialność: 4000 m
zamglenie
Prawdopodobieństwo 40%
od 08 godzina 04 UTC do 08 godzina 06 UTC
Widzialność: 7000 m
zamglenie

TAF: EGVN 070427Z 0706/0806 VRB03KT CAVOK PROB30 0706/0708 4000 BR PROB40 0804/0806 7000 BR

Obserwacja i prognoza pogody dla ponad 4000 lotnisk (raport METAR i TAF).

Dostępne stacje oznaczono żółtymi i czerwonymi punktami na mapie.

Najedź kursorem aby zobaczyć nazwę stacji.

Kliknij aby zobaczyć obserwacje i prognozy pogody.

Aby zmienić mapę: kliknij na zielony przycisk z czarnym krzyżykiem, aby powiększyć; na zielony przycisk z myślnikiem, aby pomniejszyć; na zielone strzałki, aby przejść do map sąsiednich.


METAR-TAF: